createdAt,value
2017-11-20T07:58:39.121Z,89.30
2017-11-20T08:01:06.604Z,89.30
2017-11-20T08:03:34.077Z,90.20
2017-11-20T08:06:02.401Z,90.20
2017-11-20T08:08:29.889Z,90.20
2017-11-20T08:10:57.356Z,90.60
2017-11-20T08:13:24.840Z,91.10
2017-11-20T08:15:53.084Z,90.90
2017-11-20T08:18:20.557Z,90.90
2017-11-20T08:20:48.817Z,91.40
2017-11-20T08:23:16.289Z,91.40
2017-11-20T08:25:44.544Z,91.60
2017-11-20T08:28:12.058Z,91.60
2017-11-20T08:30:39.536Z,89.80
2017-11-20T08:33:07.023Z,90.10
2017-11-20T08:35:34.496Z,90.80
2017-11-20T08:38:02.771Z,90.20
2017-11-20T08:40:31.928Z,90.50
2017-11-20T08:42:59.399Z,90.10
2017-11-20T08:45:26.892Z,90.40
2017-11-20T08:47:55.177Z,90.70
2017-11-20T08:50:23.420Z,90.70
2017-11-20T08:52:50.897Z,90.70
2017-11-20T08:55:19.147Z,89.40
2017-11-20T08:57:46.640Z,89.40
2017-11-20T09:00:14.884Z,90.80
2017-11-20T09:02:42.368Z,90.80
2017-11-20T09:05:11.512Z,89.30
2017-11-20T09:07:39.219Z,89.00
2017-11-20T09:10:07.453Z,87.90
2017-11-20T09:12:34.932Z,87.90
2017-11-20T09:15:02.421Z,87.50
2017-11-20T09:17:31.628Z,87.00
2017-11-20T09:19:59.875Z,87.30
2017-11-20T09:22:27.366Z,87.10
2017-11-20T09:24:55.614Z,87.10
2017-11-20T09:27:23.081Z,87.10
2017-11-20T09:29:51.338Z,87.40
2017-11-20T09:32:18.829Z,87.40
2017-11-20T09:34:47.067Z,88.70
2017-11-20T09:37:14.656Z,88.70
2017-11-20T09:39:42.224Z,87.70
2017-11-20T09:42:10.481Z,88.60
2017-11-20T09:44:38.052Z,88.50
2017-11-20T09:47:05.548Z,88.10
2017-11-20T09:49:33.041Z,90.10
2017-11-20T09:52:00.534Z,89.50
2017-11-20T09:54:28.804Z,90.00
2017-11-20T09:56:57.081Z,89.50
2017-11-20T09:59:25.333Z,89.20
2017-11-20T10:01:52.803Z,89.10
2017-11-20T10:04:20.273Z,89.20
2017-11-20T10:06:48.525Z,90.00
2017-11-20T10:09:15.992Z,89.90
2017-11-20T10:11:43.583Z,89.50
2017-11-20T10:14:11.841Z,88.00
2017-11-20T10:16:39.340Z,88.00
2017-11-20T10:19:06.818Z,89.00
2017-11-20T10:21:34.321Z,89.80
2017-11-20T10:24:02.584Z,90.00
2017-11-20T10:26:30.061Z,89.80
2017-11-20T10:28:58.313Z,88.60
2017-11-20T10:31:25.772Z,88.50
2017-11-20T10:33:53.277Z,89.90
2017-11-20T10:37:55.828Z,90.40
2017-11-20T10:40:23.313Z,90.10
2017-11-20T10:42:51.548Z,90.40
2017-11-20T10:45:19.037Z,90.30
2017-11-20T10:47:47.268Z,90.10
2017-11-20T10:50:14.756Z,90.10
2017-11-20T10:52:43.752Z,89.80
2017-11-20T10:55:11.990Z,90.70
2017-11-20T10:57:39.478Z,90.70
2017-11-20T11:00:06.944Z,90.90
2017-11-20T11:02:34.432Z,91.20
2017-11-20T11:05:01.953Z,91.20
2017-11-20T11:07:29.427Z,91.00
2017-11-20T11:09:57.687Z,90.80
2017-11-20T11:12:25.156Z,90.80
2017-11-20T11:14:53.417Z,90.80
2017-11-20T11:17:21.683Z,90.90
2017-11-20T11:19:49.169Z,91.10
2017-11-20T11:22:17.410Z,91.10
2017-11-20T11:24:44.909Z,91.10
2017-11-20T11:27:13.180Z,91.40
2017-11-20T11:29:40.681Z,91.30
2017-11-20T11:32:09.089Z,91.60
2017-11-20T11:34:36.556Z,91.50
2017-11-20T11:37:04.179Z,91.40
2017-11-20T11:39:31.643Z,91.60
2017-11-20T11:41:59.122Z,92.20
2017-11-20T11:44:26.605Z,92.60
2017-11-20T11:46:54.078Z,92.70
2017-11-20T11:49:23.308Z,92.80
2017-11-20T11:51:50.966Z,92.80
2017-11-20T11:54:18.493Z,92.60
2017-11-20T11:56:46.728Z,93.50
2017-11-20T11:59:14.187Z,93.30
2017-11-20T12:01:41.685Z,93.30
2017-11-20T12:04:09.920Z,93.70
2017-11-20T12:06:37.424Z,93.70
2017-11-20T12:09:05.675Z,94.00
2017-11-20T12:11:33.175Z,93.90
2017-11-20T12:14:00.669Z,93.80
2017-11-20T12:16:28.146Z,93.80
2017-11-20T12:18:55.662Z,94.10
2017-11-20T12:21:23.157Z,94.00
2017-11-20T12:23:50.656Z,94.10
2017-11-20T12:26:18.915Z,93.70
2017-11-20T12:28:47.204Z,93.60
2017-11-20T12:31:15.447Z,94.00
2017-11-20T12:33:42.928Z,94.00
2017-11-20T12:36:10.497Z,93.90
2017-11-20T12:38:38.772Z,94.00
2017-11-20T12:41:07.041Z,94.50
2017-11-20T12:44:31.108Z,94.10
2017-11-20T12:46:58.593Z,94.10
2017-11-20T12:49:26.840Z,94.20
2017-11-20T12:51:54.345Z,94.20
2017-11-20T12:54:21.856Z,94.50
2017-11-20T12:56:49.361Z,94.50
2017-11-20T12:59:17.610Z,94.60
2017-11-20T13:01:45.861Z,94.80
2017-11-20T13:04:13.357Z,94.70
2017-11-20T13:06:41.603Z,94.90
2017-11-20T13:09:09.088Z,94.80
2017-11-20T13:11:37.335Z,94.70
2017-11-20T13:14:04.840Z,94.70
2017-11-20T13:16:33.093Z,95.30
2017-11-20T13:19:00.561Z,95.20
2017-11-20T13:21:28.816Z,95.60
2017-11-20T13:23:56.296Z,95.50
2017-11-20T13:26:24.554Z,95.50
2017-11-20T13:28:52.033Z,95.50
2017-11-20T13:31:20.302Z,95.50
2017-11-20T13:33:48.545Z,95.70
2017-11-20T13:36:16.038Z,95.70
2017-11-20T13:38:44.296Z,95.90
2017-11-20T13:41:11.777Z,95.90
2017-11-20T13:43:40.028Z,96.10
2017-11-20T13:46:07.514Z,96.10
2017-11-20T13:48:35.760Z,96.10
2017-11-20T13:51:03.316Z,96.10
2017-11-20T13:53:30.803Z,96.40
2017-11-20T13:55:59.053Z,96.30
2017-11-20T13:58:26.529Z,96.30
2017-11-20T14:00:54.800Z,96.50
2017-11-20T14:03:22.325Z,96.50
2017-11-20T14:05:49.803Z,96.50
2017-11-20T14:08:17.296Z,96.70
2017-11-20T14:10:45.529Z,96.50
2017-11-20T14:13:13.014Z,96.50
2017-11-20T14:15:40.488Z,96.80
2017-11-20T14:18:08.749Z,96.80
2017-11-20T14:20:36.232Z,96.70
2017-11-20T14:23:04.508Z,96.80
2017-11-20T14:25:32.818Z,96.80
2017-11-20T14:28:00.304Z,96.80
2017-11-20T14:30:27.797Z,96.80
2017-11-20T14:32:56.055Z,96.80
2017-11-20T14:35:23.602Z,96.80
2017-11-20T14:37:51.080Z,97.30
2017-11-20T14:40:19.336Z,97.40
2017-11-20T14:42:47.090Z,97.40
2017-11-20T14:45:14.561Z,97.50
2017-11-20T14:47:42.072Z,97.50
2017-11-20T14:50:09.600Z,97.60
2017-11-20T14:52:37.896Z,97.70
2017-11-20T14:55:05.514Z,97.70
2017-11-20T14:57:33.016Z,97.20
2017-11-20T15:00:00.516Z,97.40
2017-11-20T15:02:28.088Z,97.50
2017-11-20T15:04:55.677Z,97.70
2017-11-20T15:07:23.925Z,97.60
2017-11-20T15:09:51.444Z,97.60
2017-11-20T15:12:18.924Z,97.70
2017-11-20T15:14:46.432Z,97.60
2017-11-20T15:17:14.744Z,97.60
2017-11-20T15:19:42.241Z,97.60
2017-11-20T15:22:09.728Z,97.70
2017-11-20T15:24:37.981Z,97.70
2017-11-20T15:27:05.552Z,97.70
2017-11-20T15:29:33.840Z,97.60
2017-11-20T15:32:02.168Z,97.50
2017-11-20T15:34:29.780Z,97.50
2017-11-20T15:36:58.068Z,97.80
2017-11-20T15:39:26.328Z,97.70
2017-11-20T15:41:54.566Z,97.80
2017-11-20T15:44:22.128Z,97.80
2017-11-20T15:46:49.685Z,97.80
2017-11-20T15:49:18.037Z,97.60
2017-11-20T15:51:46.593Z,97.70
2017-11-20T15:54:14.095Z,97.70
2017-11-20T15:56:42.609Z,97.70
2017-11-20T15:59:10.203Z,97.80
2017-11-20T16:01:38.476Z,98.00
2017-11-20T16:04:06.716Z,98.10
2017-11-20T16:06:34.232Z,98.00
2017-11-20T16:09:01.728Z,98.10
2017-11-20T16:11:29.284Z,98.10
2017-11-20T16:13:56.858Z,98.10
2017-11-20T16:16:24.475Z,98.30
2017-11-20T16:18:52.088Z,98.40
2017-11-20T16:21:20.353Z,98.40
2017-11-20T16:23:47.828Z,98.40
2017-11-20T16:26:16.112Z,98.30
2017-11-20T16:29:25.509Z,98.20
2017-11-20T16:31:52.984Z,98.40
2017-11-20T16:34:20.481Z,98.50
2017-11-20T16:36:47.988Z,98.40
2017-11-20T16:39:15.468Z,98.40
2017-11-20T16:41:43.031Z,98.70
2017-11-20T16:44:10.504Z,98.80
2017-11-20T16:46:39.786Z,98.80
2017-11-20T16:49:07.261Z,98.70
2017-11-20T16:51:36.409Z,98.60
2017-11-20T16:54:03.916Z,98.60
2017-11-20T16:56:32.156Z,98.50
2017-11-20T16:59:09.714Z,98.50
2017-11-20T17:01:49.030Z,98.40
2017-11-20T17:04:17.292Z,98.50
2017-11-20T17:06:44.765Z,98.60
2017-11-20T17:09:13.028Z,98.70
2017-11-20T17:11:40.503Z,98.60
2017-11-20T17:14:08.804Z,98.60
2017-11-20T17:16:36.285Z,98.60
2017-11-20T17:19:04.522Z,98.50
2017-11-20T17:21:32.136Z,98.40
2017-11-20T17:23:59.613Z,98.50
2017-11-20T17:26:27.185Z,98.40
2017-11-20T17:28:56.445Z,98.20
2017-11-20T17:31:23.932Z,98.20
2017-11-20T17:33:51.561Z,98.20
2017-11-20T17:36:19.028Z,98.40
2017-11-20T17:38:46.529Z,98.00
2017-11-20T17:41:14.024Z,98.10
2017-11-20T17:43:41.577Z,97.90
2017-11-20T17:46:09.053Z,97.70
2017-11-20T17:48:36.541Z,98.30
2017-11-20T17:51:04.083Z,98.30
2017-11-20T17:53:31.566Z,98.50
2017-11-20T17:55:59.833Z,98.30
2017-11-20T17:58:28.113Z,98.10
2017-11-20T18:00:55.625Z,98.10
2017-11-20T18:03:23.178Z,97.70
2017-11-20T18:05:50.647Z,97.50
2017-11-20T18:08:18.163Z,97.30
2017-11-20T18:10:47.404Z,97.30
2017-11-20T18:13:14.919Z,97.30
2017-11-20T18:15:43.159Z,97.10
2017-11-20T18:18:10.712Z,97.10
2017-11-20T18:20:38.184Z,97.10
2017-11-20T18:23:05.664Z,97.10
2017-11-20T18:25:33.920Z,96.90
2017-11-20T18:28:01.408Z,96.90
2017-11-20T18:30:29.686Z,97.00
2017-11-20T18:32:57.942Z,96.90
2017-11-20T18:35:25.444Z,96.90
2017-11-20T18:37:52.989Z,97.10
2017-11-20T18:40:21.860Z,96.90
2017-11-20T18:42:49.357Z,96.90
2017-11-20T18:45:16.828Z,96.90
2017-11-20T18:47:44.368Z,96.90
2017-11-20T18:50:11.903Z,96.90
2017-11-20T18:52:40.393Z,96.70
2017-11-20T18:55:08.632Z,96.90
2017-11-20T18:57:36.695Z,96.80
2017-11-20T19:00:16.242Z,96.90
2017-11-20T19:06:15.522Z,96.80
2017-11-20T19:08:54.962Z,96.70
2017-11-20T19:11:22.442Z,96.70
2017-11-20T19:13:49.993Z,96.70
2017-11-20T19:16:17.529Z,96.80
2017-11-20T19:18:45.092Z,96.60
2017-11-20T19:21:12.596Z,96.80
2017-11-20T19:23:40.060Z,96.60
2017-11-20T19:26:07.573Z,96.50
2017-11-20T19:28:35.134Z,96.70
2017-11-20T19:31:02.628Z,96.80
2017-11-20T19:33:30.118Z,96.80
2017-11-20T19:35:57.673Z,97.00
2017-11-20T19:38:25.190Z,97.10
2017-11-20T19:40:52.657Z,97.30
2017-11-20T19:43:20.144Z,97.30
2017-11-20T19:45:47.671Z,97.30
2017-11-20T19:48:15.144Z,97.30
2017-11-20T19:50:42.636Z,97.40
2017-11-20T19:53:11.901Z,97.50
2017-11-20T19:55:39.468Z,97.40
2017-11-20T19:58:06.968Z,97.60
2017-11-20T20:00:35.236Z,97.50
2017-11-20T20:03:03.493Z,97.50
2017-11-20T20:05:31.003Z,97.50
2017-11-20T20:07:58.581Z,97.50
2017-11-20T20:10:26.072Z,97.50
2017-11-20T20:12:53.819Z,97.50
2017-11-20T20:15:33.220Z,97.50
2017-11-20T20:18:00.713Z,97.50
2017-11-20T20:20:28.191Z,97.40
2017-11-20T20:22:55.665Z,97.50
2017-11-20T20:25:23.930Z,98.00
2017-11-20T20:27:51.402Z,98.10
2017-11-20T20:30:19.672Z,98.50
2017-11-20T20:32:47.920Z,98.90
2017-11-20T20:35:15.412Z,98.60
2017-11-20T20:37:43.649Z,98.70
2017-11-20T20:40:11.118Z,98.70
2017-11-20T20:42:38.595Z,99.30
2017-11-20T20:45:06.850Z,99.20
2017-11-20T20:47:34.376Z,99.20
2017-11-20T20:50:01.865Z,99.10
2017-11-20T20:52:29.373Z,99.20
2017-11-20T20:54:56.838Z,99.20
2017-11-20T20:57:24.301Z,99.10
2017-11-20T20:59:51.793Z,99.00
2017-11-20T21:02:19.393Z,99.00
2017-11-20T21:04:47.753Z,99.00
2017-11-20T21:07:15.231Z,99.00
2017-11-20T21:09:49.288Z,98.80
2017-11-20T21:12:19.416Z,98.80
2017-11-20T21:14:46.892Z,98.80
2017-11-20T21:17:14.377Z,98.70
2017-11-20T21:19:42.626Z,98.60
2017-11-20T21:22:10.138Z,98.60
2017-11-20T21:24:37.631Z,98.00
2017-11-20T21:27:05.115Z,97.90
2017-11-20T21:29:33.403Z,97.80
2017-11-20T21:32:01.653Z,97.80
2017-11-20T21:34:29.181Z,97.80
2017-11-20T21:36:56.660Z,97.90
2017-11-20T21:39:24.204Z,97.60
2017-11-20T21:41:51.711Z,97.60
2017-11-20T21:44:19.952Z,97.50
2017-11-20T21:46:47.483Z,97.50
2017-11-20T21:49:14.977Z,97.50
2017-11-20T21:51:42.526Z,97.60
2017-11-20T21:54:10.029Z,97.70
2017-11-20T21:56:38.317Z,97.80
2017-11-20T21:59:05.828Z,97.70
2017-11-20T22:01:33.315Z,97.70
2017-11-20T22:04:01.591Z,98.00
2017-11-20T22:06:29.097Z,97.90
2017-11-20T22:08:56.612Z,98.10
2017-11-20T22:11:25.001Z,98.20
2017-11-20T22:13:53.284Z,98.30
2017-11-20T22:16:21.560Z,98.00
2017-11-20T22:18:49.067Z,98.00
2017-11-20T22:21:16.567Z,98.20
2017-11-20T22:23:44.822Z,98.00
2017-11-20T22:26:12.364Z,98.00
2017-11-20T22:28:39.862Z,97.80
2017-11-20T22:31:08.165Z,97.90
2017-11-20T22:33:35.732Z,97.90
2017-11-20T22:36:03.224Z,97.90
2017-11-20T22:38:30.714Z,98.10
2017-11-20T22:40:58.973Z,98.30
2017-11-20T22:43:28.669Z,98.30
2017-11-20T22:45:56.173Z,98.30
2017-11-20T22:48:24.442Z,98.00
2017-11-20T22:50:52.723Z,98.10
2017-11-20T22:53:21.019Z,98.00
2017-11-20T22:55:48.536Z,98.00
